QXE2110 KSAN-KPHX
Flight info
| Callsign | QXE2110 |
|---|---|
| Flight time | 0h 56m |
| Altitude | 37000 |
| Route | ZZOOO4 HOGGZ HYDRR1 |
| Aircraft | E75L/M-SDE3GILORVW/S |
Departure
| Time | 2026-05-06 16:13 |
|---|---|
| Airport | San Diego International Airport (KSAN) |
Arrival
| Time | 2026-05-06 17:09 |
|---|---|
| Airport | Phoenix Sky Harbor International Airport (KPHX) |
| Time | Latitude | Longitude | Altitude | Speed | Heading |
|---|---|---|---|---|---|
| 2026-05-06 15:53 | 32.73293 | -117.20164 | 18 ft | 0 kts | 92° |
| 2026-05-06 16:02 | 32.73293 | -117.20166 | 18 ft | 2 kts | 93° |
| 2026-05-06 16:02 | 32.73294 | -117.20184 | 18 ft | 2 kts | 92° |
| 2026-05-06 16:03 | 32.73295 | -117.20202 | 18 ft | 2 kts | 93° |
| 2026-05-06 16:03 | 32.73295 | -117.20220 | 18 ft | 2 kts | 92° |
| 2026-05-06 16:03 | 32.73296 | -117.20233 | 18 ft | 0 kts | 92° |
| 2026-05-06 16:03 | 32.73293 | -117.20249 | 18 ft | 2 kts | 58° |
| 2026-05-06 16:04 | 32.73282 | -117.20260 | 18 ft | 2 kts | 21° |
| 2026-05-06 16:04 | 32.73277 | -117.20262 | 18 ft | 0 kts | 13° |
| 2026-05-06 16:06 | 32.73278 | -117.20262 | 18 ft | 0 kts | 13° |
| 2026-05-06 16:06 | 32.73292 | -117.20258 | 18 ft | 3 kts | 9° |
| 2026-05-06 16:06 | 32.73325 | -117.20263 | 17 ft | 6 kts | 344° |
| 2026-05-06 16:06 | 32.73375 | -117.20279 | 17 ft | 8 kts | 355° |
| 2026-05-06 16:07 | 32.73433 | -117.20266 | 17 ft | 8 kts | 17° |
| 2026-05-06 16:07 | 32.73465 | -117.20259 | 17 ft | 5 kts | 6° |
| 2026-05-06 16:07 | 32.73514 | -117.20243 | 18 ft | 8 kts | 28° |
| 2026-05-06 16:07 | 32.73546 | -117.20175 | 18 ft | 11 kts | 99° |
| 2026-05-06 16:08 | 32.73521 | -117.20073 | 18 ft | 14 kts | 107° |
| 2026-05-06 16:08 | 32.73491 | -117.19951 | 18 ft | 16 kts | 105° |
| 2026-05-06 16:08 | 32.73457 | -117.19809 | 19 ft | 19 kts | 106° |
| 2026-05-06 16:08 | 32.73418 | -117.19649 | 19 ft | 21 kts | 106° |
| 2026-05-06 16:09 | 32.73375 | -117.19471 | 20 ft | 22 kts | 106° |
| 2026-05-06 16:09 | 32.73330 | -117.19287 | 20 ft | 23 kts | 106° |
| 2026-05-06 16:09 | 32.73284 | -117.19099 | 20 ft | 23 kts | 106° |
| 2026-05-06 16:09 | 32.73238 | -117.18909 | 20 ft | 24 kts | 107° |
| 2026-05-06 16:10 | 32.73191 | -117.18715 | 20 ft | 24 kts | 106° |
| 2026-05-06 16:10 | 32.73144 | -117.18518 | 20 ft | 24 kts | 106° |
| 2026-05-06 16:10 | 32.73095 | -117.18319 | 21 ft | 25 kts | 106° |
| 2026-05-06 16:10 | 32.73047 | -117.18118 | 21 ft | 25 kts | 106° |
| 2026-05-06 16:11 | 32.72998 | -117.17916 | 22 ft | 24 kts | 105° |
| 2026-05-06 16:11 | 32.72961 | -117.17750 | 22 ft | 10 kts | 101° |
| 2026-05-06 16:11 | 32.72991 | -117.17675 | 23 ft | 10 kts | 29° |
| 2026-05-06 16:11 | 32.73050 | -117.17703 | 23 ft | 10 kts | 288° |
| 2026-05-06 16:12 | 32.73053 | -117.17717 | 23 ft | 4 kts | 287° |
| 2026-05-06 16:12 | 32.73132 | -117.18032 | 22 ft | 75 kts | 285° |
| 2026-05-06 16:12 | 32.73336 | -117.18883 | 21 ft | 134 kts | 286° |
| 2026-05-06 16:12 | 32.73616 | -117.20035 | 332 ft | 152 kts | 287° |
| 2026-05-06 16:13 | 32.73918 | -117.21299 | 852 ft | 162 kts | 285° |
| 2026-05-06 16:13 | 32.74198 | -117.22567 | 1525 ft | 163 kts | 285° |
| 2026-05-06 16:13 | 32.74467 | -117.23995 | 1919 ft | 190 kts | 283° |
| 2026-05-06 16:13 | 32.74722 | -117.25642 | 2326 ft | 219 kts | 283° |
| 2026-05-06 16:14 | 32.75005 | -117.27479 | 2979 ft | 234 kts | 278° |
| 2026-05-06 16:14 | 32.74920 | -117.29379 | 3034 ft | 233 kts | 249° |
| 2026-05-06 16:14 | 32.73864 | -117.30806 | 2876 ft | 236 kts | 206° |
| 2026-05-06 16:14 | 32.72279 | -117.30982 | 3298 ft | 237 kts | 160° |
| 2026-05-06 16:15 | 32.70860 | -117.29998 | 4118 ft | 243 kts | 144° |
| 2026-05-06 16:15 | 32.69421 | -117.28890 | 4882 ft | 253 kts | 146° |
| 2026-05-06 16:15 | 32.67892 | -117.27798 | 5665 ft | 262 kts | 147° |
| 2026-05-06 16:15 | 32.66299 | -117.26707 | 6467 ft | 269 kts | 148° |
| 2026-05-06 16:16 | 32.64670 | -117.25601 | 7277 ft | 273 kts | 142° |
| 2026-05-06 16:16 | 32.63480 | -117.23953 | 8093 ft | 264 kts | 107° |
| 2026-05-06 16:16 | 32.63048 | -117.21879 | 8923 ft | 261 kts | 95° |
| 2026-05-06 16:16 | 32.62779 | -117.19755 | 9713 ft | 264 kts | 92° |
| 2026-05-06 16:17 | 32.62547 | -117.17606 | 10491 ft | 266 kts | 92° |
| 2026-05-06 16:17 | 32.62331 | -117.15436 | 11268 ft | 267 kts | 92° |
| 2026-05-06 16:17 | 32.62124 | -117.13262 | 12053 ft | 267 kts | 91° |
| 2026-05-06 16:17 | 32.61943 | -117.11082 | 12818 ft | 265 kts | 84° |
| 2026-05-06 16:18 | 32.62359 | -117.09034 | 13592 ft | 256 kts | 66° |
| 2026-05-06 16:18 | 32.62988 | -117.07070 | 14343 ft | 256 kts | 66° |
| 2026-05-06 16:18 | 32.63619 | -117.05117 | 15093 ft | 255 kts | 65° |
| 2026-05-06 16:18 | 32.64251 | -117.03173 | 15823 ft | 254 kts | 65° |
| 2026-05-06 16:19 | 32.64914 | -117.01143 | 15945 ft | 277 kts | 66° |
| 2026-05-06 16:19 | 32.65644 | -116.98906 | 15994 ft | 302 kts | 65° |
| 2026-05-06 16:19 | 32.66414 | -116.96489 | 16173 ft | 321 kts | 71° |
| 2026-05-06 16:19 | 32.66669 | -116.93805 | 16622 ft | 333 kts | 84° |
| 2026-05-06 16:20 | 32.66740 | -116.91070 | 17328 ft | 333 kts | 84° |
| 2026-05-06 16:20 | 32.66808 | -116.88333 | 18048 ft | 332 kts | 84° |
| 2026-05-06 16:20 | 32.66873 | -116.85610 | 18715 ft | 332 kts | 84° |
| 2026-05-06 16:20 | 32.66937 | -116.82876 | 19352 ft | 333 kts | 83° |
| 2026-05-06 16:21 | 32.67002 | -116.80131 | 19931 ft | 335 kts | 83° |
| 2026-05-06 16:21 | 32.67066 | -116.77368 | 20475 ft | 338 kts | 83° |
| 2026-05-06 16:21 | 32.67103 | -116.74565 | 21005 ft | 342 kts | 86° |
| 2026-05-06 16:21 | 32.67059 | -116.71740 | 21551 ft | 344 kts | 85° |
| 2026-05-06 16:22 | 32.67015 | -116.68900 | 22086 ft | 347 kts | 85° |
| 2026-05-06 16:22 | 32.66970 | -116.66039 | 22571 ft | 350 kts | 85° |
| 2026-05-06 16:22 | 32.66924 | -116.63148 | 23082 ft | 352 kts | 85° |
| 2026-05-06 16:22 | 32.66877 | -116.60258 | 23647 ft | 352 kts | 85° |
| 2026-05-06 16:23 | 32.66830 | -116.57348 | 24155 ft | 354 kts | 85° |
| 2026-05-06 16:23 | 32.66782 | -116.54432 | 24612 ft | 356 kts | 85° |
| 2026-05-06 16:23 | 32.66732 | -116.51479 | 25052 ft | 359 kts | 85° |
| 2026-05-06 16:23 | 32.66683 | -116.48503 | 25464 ft | 363 kts | 85° |
| 2026-05-06 16:24 | 32.66631 | -116.45506 | 25906 ft | 365 kts | 85° |
| 2026-05-06 16:24 | 32.66607 | -116.42501 | 26383 ft | 363 kts | 81° |
| 2026-05-06 16:24 | 32.66852 | -116.39538 | 26844 ft | 362 kts | 79° |
| 2026-05-06 16:24 | 32.67125 | -116.36546 | 27244 ft | 365 kts | 78° |
| 2026-05-06 16:25 | 32.67400 | -116.33536 | 27604 ft | 369 kts | 79° |
| 2026-05-06 16:25 | 32.67673 | -116.30516 | 27996 ft | 371 kts | 79° |
| 2026-05-06 16:25 | 32.67950 | -116.27462 | 28364 ft | 374 kts | 79° |
| 2026-05-06 16:25 | 32.68227 | -116.24390 | 28795 ft | 375 kts | 79° |
| 2026-05-06 16:26 | 32.68505 | -116.21308 | 29173 ft | 377 kts | 79° |
| 2026-05-06 16:26 | 32.68785 | -116.18194 | 29518 ft | 380 kts | 79° |
| 2026-05-06 16:26 | 32.69064 | -116.15065 | 29877 ft | 383 kts | 79° |
| 2026-05-06 16:26 | 32.69343 | -116.11941 | 30296 ft | 383 kts | 79° |
| 2026-05-06 16:27 | 32.69623 | -116.08794 | 30585 ft | 386 kts | 79° |
| 2026-05-06 16:27 | 32.69905 | -116.05619 | 30840 ft | 390 kts | 79° |
| 2026-05-06 16:27 | 32.70192 | -116.02408 | 31076 ft | 394 kts | 79° |
| 2026-05-06 16:27 | 32.70493 | -115.99171 | 31362 ft | 396 kts | 79° |
| 2026-05-06 16:28 | 32.70796 | -115.95915 | 31638 ft | 399 kts | 79° |
| 2026-05-06 16:28 | 32.71100 | -115.92629 | 31871 ft | 402 kts | 79° |
| 2026-05-06 16:28 | 32.71406 | -115.89307 | 32046 ft | 407 kts | 79° |
| 2026-05-06 16:28 | 32.71715 | -115.85953 | 32312 ft | 409 kts | 79° |
| 2026-05-06 16:29 | 32.72023 | -115.82586 | 32541 ft | 411 kts | 79° |
| 2026-05-06 16:29 | 32.72334 | -115.79190 | 32700 ft | 416 kts | 79° |
| 2026-05-06 16:29 | 32.72647 | -115.75759 | 32882 ft | 420 kts | 80° |
| 2026-05-06 16:29 | 32.72959 | -115.72315 | 33115 ft | 422 kts | 79° |
| 2026-05-06 16:30 | 32.73274 | -115.68841 | 33361 ft | 424 kts | 80° |
| 2026-05-06 16:30 | 32.73485 | -115.66511 | 33517 ft | 425 kts | 80° |
| 2026-05-06 16:30 | 32.73906 | -115.61839 | 33738 ft | 429 kts | 80° |
| 2026-05-06 16:30 | 32.74223 | -115.58299 | 33881 ft | 433 kts | 80° |
| 2026-05-06 16:31 | 32.74543 | -115.54726 | 34078 ft | 434 kts | 80° |
| 2026-05-06 16:31 | 32.74862 | -115.51145 | 34261 ft | 436 kts | 81° |
| 2026-05-06 16:31 | 32.75003 | -115.47541 | 34433 ft | 440 kts | 86° |
| 2026-05-06 16:31 | 32.75068 | -115.43868 | 34545 ft | 443 kts | 85° |
| 2026-05-06 16:32 | 32.75236 | -115.36492 | 34764 ft | 450 kts | 85° |
| 2026-05-06 16:32 | 32.75324 | -115.32761 | 34865 ft | 453 kts | 86° |
| 2026-05-06 16:32 | 32.75410 | -115.29004 | 34990 ft | 456 kts | 86° |
| 2026-05-06 16:33 | 32.75497 | -115.25227 | 35118 ft | 457 kts | 86° |
| 2026-05-06 16:33 | 32.75583 | -115.21445 | 35245 ft | 460 kts | 86° |
| 2026-05-06 16:34 | 32.75837 | -115.09945 | 35501 ft | 467 kts | 87° |
| 2026-05-06 16:34 | 32.75920 | -115.06080 | 35658 ft | 468 kts | 87° |
| 2026-05-06 16:34 | 32.76001 | -115.02212 | 35774 ft | 470 kts | 87° |
| 2026-05-06 16:34 | 32.76082 | -114.98330 | 35883 ft | 472 kts | 87° |
| 2026-05-06 16:35 | 32.76162 | -114.94430 | 35989 ft | 475 kts | 87° |
| 2026-05-06 16:35 | 32.76320 | -114.86553 | 36104 ft | 480 kts | 88° |
| 2026-05-06 16:35 | 32.76398 | -114.82584 | 36225 ft | 481 kts | 88° |
| 2026-05-06 16:36 | 32.76474 | -114.78601 | 36312 ft | 483 kts | 88° |
| 2026-05-06 16:36 | 32.76625 | -114.70581 | 36382 ft | 488 kts | 88° |
| 2026-05-06 16:37 | 32.76772 | -114.62482 | 36497 ft | 493 kts | 88° |
| 2026-05-06 16:37 | 32.76897 | -114.54300 | 36472 ft | 498 kts | 88° |
| 2026-05-06 16:38 | 32.77011 | -114.46133 | 36467 ft | 493 kts | 88° |
| 2026-05-06 16:38 | 32.77120 | -114.38020 | 36498 ft | 493 kts | 89° |
| 2026-05-06 16:39 | 32.77223 | -114.29881 | 35872 ft | 491 kts | 89° |
| 2026-05-06 16:39 | 32.77271 | -114.25855 | 35375 ft | 484 kts | 89° |
| 2026-05-06 16:39 | 32.77318 | -114.21898 | 34883 ft | 477 kts | 88° |
| 2026-05-06 16:39 | 32.77363 | -114.17995 | 34368 ft | 469 kts | 88° |
| 2026-05-06 16:40 | 32.77406 | -114.14166 | 33848 ft | 461 kts | 88° |
| 2026-05-06 16:40 | 32.77447 | -114.10402 | 33322 ft | 452 kts | 88° |
| 2026-05-06 16:40 | 32.77527 | -114.06712 | 32822 ft | 443 kts | 83° |
| 2026-05-06 16:40 | 32.77904 | -114.03085 | 32347 ft | 445 kts | 80° |
| 2026-05-06 16:41 | 32.78312 | -113.99449 | 31855 ft | 443 kts | 81° |
| 2026-05-06 16:41 | 32.78707 | -113.95861 | 31359 ft | 435 kts | 80° |
| 2026-05-06 16:41 | 32.79095 | -113.92329 | 30881 ft | 429 kts | 80° |
| 2026-05-06 16:41 | 32.79480 | -113.88823 | 30423 ft | 425 kts | 80° |
| 2026-05-06 16:42 | 32.79857 | -113.85371 | 29939 ft | 417 kts | 79° |
| 2026-05-06 16:42 | 32.80228 | -113.81967 | 29469 ft | 412 kts | 79° |
| 2026-05-06 16:42 | 32.80597 | -113.78577 | 29018 ft | 412 kts | 79° |
| 2026-05-06 16:42 | 32.80963 | -113.75202 | 28554 ft | 412 kts | 79° |
| 2026-05-06 16:43 | 32.81476 | -113.71865 | 28107 ft | 408 kts | 71° |
| 2026-05-06 16:43 | 32.82470 | -113.68730 | 27689 ft | 402 kts | 61° |
| 2026-05-06 16:43 | 32.83870 | -113.65887 | 27190 ft | 394 kts | 51° |
| 2026-05-06 16:43 | 32.85634 | -113.63425 | 26767 ft | 387 kts | 46° |
| 2026-05-06 16:44 | 32.87445 | -113.61040 | 26331 ft | 385 kts | 47° |
| 2026-05-06 16:44 | 32.89231 | -113.58653 | 25901 ft | 384 kts | 47° |
| 2026-05-06 16:44 | 32.90990 | -113.56291 | 25482 ft | 380 kts | 47° |
| 2026-05-06 16:44 | 32.92740 | -113.53936 | 25053 ft | 378 kts | 48° |
| 2026-05-06 16:45 | 32.94473 | -113.51600 | 24640 ft | 373 kts | 48° |
| 2026-05-06 16:45 | 32.96185 | -113.49292 | 24221 ft | 371 kts | 48° |
| 2026-05-06 16:45 | 32.97890 | -113.46990 | 23818 ft | 369 kts | 48° |
| 2026-05-06 16:45 | 32.99580 | -113.44708 | 23409 ft | 366 kts | 48° |
| 2026-05-06 16:46 | 33.01251 | -113.42449 | 23007 ft | 363 kts | 49° |
| 2026-05-06 16:46 | 33.02914 | -113.40201 | 22608 ft | 360 kts | 49° |
| 2026-05-06 16:46 | 33.04564 | -113.37968 | 22212 ft | 359 kts | 48° |
| 2026-05-06 16:46 | 33.06212 | -113.35741 | 22079 ft | 359 kts | 48° |
| 2026-05-06 16:47 | 33.07866 | -113.33506 | 22084 ft | 358 kts | 49° |
| 2026-05-06 16:47 | 33.09525 | -113.31265 | 22084 ft | 360 kts | 49° |
| 2026-05-06 16:47 | 33.11182 | -113.29024 | 22083 ft | 359 kts | 49° |
| 2026-05-06 16:47 | 33.12847 | -113.26771 | 22089 ft | 360 kts | 49° |
| 2026-05-06 16:48 | 33.14505 | -113.24525 | 22070 ft | 362 kts | 49° |
| 2026-05-06 16:48 | 33.16177 | -113.22261 | 21724 ft | 363 kts | 49° |
| 2026-05-06 16:48 | 33.17839 | -113.20006 | 21338 ft | 360 kts | 49° |
| 2026-05-06 16:48 | 33.19491 | -113.17766 | 20950 ft | 357 kts | 49° |
| 2026-05-06 16:49 | 33.21128 | -113.15543 | 20553 ft | 355 kts | 49° |
| 2026-05-06 16:49 | 33.22763 | -113.13324 | 20155 ft | 356 kts | 49° |
| 2026-05-06 16:49 | 33.24392 | -113.11109 | 19768 ft | 353 kts | 49° |
| 2026-05-06 16:49 | 33.26010 | -113.08906 | 19385 ft | 351 kts | 50° |
| 2026-05-06 16:50 | 33.27176 | -113.06381 | 19004 ft | 352 kts | 75° |
| 2026-05-06 16:50 | 33.27458 | -113.03493 | 19053 ft | 352 kts | 85° |
| 2026-05-06 16:50 | 33.27571 | -113.00562 | 19075 ft | 354 kts | 85° |
| 2026-05-06 16:50 | 33.27632 | -112.98607 | 19075 ft | 355 kts | 86° |
| 2026-05-06 16:51 | 33.27741 | -112.94656 | 18677 ft | 358 kts | 86° |
| 2026-05-06 16:51 | 33.27816 | -112.91704 | 18249 ft | 355 kts | 86° |
| 2026-05-06 16:51 | 33.27889 | -112.88769 | 17853 ft | 353 kts | 86° |
| 2026-05-06 16:51 | 33.27960 | -112.85849 | 17465 ft | 351 kts | 86° |
| 2026-05-06 16:52 | 33.28030 | -112.82943 | 17077 ft | 349 kts | 86° |
| 2026-05-06 16:52 | 33.28239 | -112.80081 | 17043 ft | 345 kts | 82° |
| 2026-05-06 16:52 | 33.28514 | -112.77227 | 17066 ft | 348 kts | 82° |
| 2026-05-06 16:52 | 33.28788 | -112.74347 | 17086 ft | 350 kts | 82° |
| 2026-05-06 16:53 | 33.29060 | -112.71458 | 17087 ft | 350 kts | 82° |
| 2026-05-06 16:53 | 33.29332 | -112.68563 | 16849 ft | 351 kts | 82° |
| 2026-05-06 16:53 | 33.29602 | -112.65680 | 16471 ft | 349 kts | 82° |
| 2026-05-06 16:53 | 33.29871 | -112.62803 | 16106 ft | 346 kts | 82° |
| 2026-05-06 16:54 | 33.30137 | -112.59944 | 15715 ft | 345 kts | 82° |
| 2026-05-06 16:54 | 33.30401 | -112.57102 | 15334 ft | 344 kts | 82° |
| 2026-05-06 16:54 | 33.30664 | -112.54265 | 14956 ft | 342 kts | 82° |
| 2026-05-06 16:54 | 33.30926 | -112.51434 | 14574 ft | 342 kts | 82° |
| 2026-05-06 16:55 | 33.31185 | -112.48619 | 14200 ft | 341 kts | 82° |
| 2026-05-06 16:55 | 33.31444 | -112.45811 | 13826 ft | 338 kts | 82° |
| 2026-05-06 16:55 | 33.31700 | -112.43022 | 13456 ft | 337 kts | 82° |
| 2026-05-06 16:55 | 33.31954 | -112.40244 | 13087 ft | 336 kts | 82° |
| 2026-05-06 16:56 | 33.32207 | -112.37474 | 12717 ft | 334 kts | 82° |
| 2026-05-06 16:56 | 33.32458 | -112.34726 | 12386 ft | 332 kts | 82° |
| 2026-05-06 16:56 | 33.32709 | -112.31982 | 12033 ft | 331 kts | 82° |
| 2026-05-06 16:56 | 33.32958 | -112.29249 | 11667 ft | 330 kts | 82° |
| 2026-05-06 16:57 | 33.33206 | -112.26527 | 11307 ft | 329 kts | 83° |
| 2026-05-06 16:57 | 33.33452 | -112.23812 | 10943 ft | 328 kts | 82° |
| 2026-05-06 16:57 | 33.33696 | -112.21119 | 10580 ft | 326 kts | 82° |
| 2026-05-06 16:57 | 33.33938 | -112.18437 | 10210 ft | 318 kts | 82° |
| 2026-05-06 16:58 | 33.34170 | -112.15862 | 9857 ft | 305 kts | 82° |
| 2026-05-06 16:58 | 33.34393 | -112.13389 | 9523 ft | 293 kts | 82° |
| 2026-05-06 16:58 | 33.34606 | -112.11014 | 9202 ft | 282 kts | 83° |
| 2026-05-06 16:58 | 33.34747 | -112.08714 | 8901 ft | 273 kts | 89° |
| 2026-05-06 16:59 | 33.34724 | -112.06495 | 8668 ft | 262 kts | 89° |
| 2026-05-06 16:59 | 33.34698 | -112.04340 | 8392 ft | 254 kts | 89° |
| 2026-05-06 16:59 | 33.34672 | -112.02251 | 8118 ft | 248 kts | 89° |
| 2026-05-06 16:59 | 33.34647 | -112.00200 | 7851 ft | 247 kts | 89° |
| 2026-05-06 17:00 | 33.34621 | -111.98143 | 7586 ft | 248 kts | 89° |
| 2026-05-06 17:00 | 33.34594 | -111.96080 | 7314 ft | 248 kts | 89° |
| 2026-05-06 17:00 | 33.34567 | -111.94026 | 7044 ft | 246 kts | 90° |
| 2026-05-06 17:00 | 33.34538 | -111.92026 | 7656 ft | 240 kts | 90° |
| 2026-05-06 17:01 | 33.34505 | -111.89957 | 7410 ft | 252 kts | 90° |
| 2026-05-06 17:01 | 33.34470 | -111.87864 | 7054 ft | 253 kts | 90° |
| 2026-05-06 17:01 | 33.34448 | -111.85762 | 6596 ft | 254 kts | 88° |
| 2026-05-06 17:01 | 33.34468 | -111.83652 | 6143 ft | 254 kts | 88° |
| 2026-05-06 17:02 | 33.34489 | -111.81533 | 5686 ft | 255 kts | 88° |
| 2026-05-06 17:02 | 33.34511 | -111.79413 | 5087 ft | 256 kts | 88° |
| 2026-05-06 17:02 | 33.34586 | -111.77326 | 4438 ft | 248 kts | 79° |
| 2026-05-06 17:02 | 33.35007 | -111.75384 | 4075 ft | 231 kts | 57° |
| 2026-05-06 17:03 | 33.36153 | -111.74189 | 4092 ft | 215 kts | 16° |
| 2026-05-06 17:03 | 33.37550 | -111.74248 | 4063 ft | 195 kts | 332° |
| 2026-05-06 17:03 | 33.38512 | -111.75306 | 4054 ft | 186 kts | 309° |
| 2026-05-06 17:03 | 33.39340 | -111.76511 | 4038 ft | 188 kts | 309° |
| 2026-05-06 17:04 | 33.40182 | -111.77735 | 4038 ft | 190 kts | 310° |
| 2026-05-06 17:04 | 33.41126 | -111.78858 | 4037 ft | 191 kts | 321° |
| 2026-05-06 17:04 | 33.42213 | -111.79783 | 4036 ft | 190 kts | 328° |
| 2026-05-06 17:04 | 33.43326 | -111.80624 | 4042 ft | 180 kts | 315° |
| 2026-05-06 17:05 | 33.43821 | -111.81905 | 4031 ft | 169 kts | 276° |
| 2026-05-06 17:05 | 33.43931 | -111.83301 | 4034 ft | 168 kts | 276° |
| 2026-05-06 17:05 | 33.44055 | -111.84684 | 4033 ft | 160 kts | 274° |
| 2026-05-06 17:05 | 33.44061 | -111.85995 | 4115 ft | 157 kts | 270° |
| 2026-05-06 17:06 | 33.44060 | -111.87311 | 4098 ft | 158 kts | 271° |
| 2026-05-06 17:06 | 33.44061 | -111.88589 | 3918 ft | 153 kts | 271° |
| 2026-05-06 17:06 | 33.44095 | -111.89886 | 3376 ft | 159 kts | 276° |
| 2026-05-06 17:06 | 33.44135 | -111.91172 | 3057 ft | 150 kts | 269° |
| 2026-05-06 17:07 | 33.44088 | -111.92405 | 2710 ft | 146 kts | 267° |
| 2026-05-06 17:07 | 33.44048 | -111.93634 | 2246 ft | 150 kts | 270° |
| 2026-05-06 17:07 | 33.44072 | -111.94867 | 1891 ft | 146 kts | 271° |
| 2026-05-06 17:07 | 33.44079 | -111.96050 | 1643 ft | 137 kts | 269° |
| 2026-05-06 17:08 | 33.44077 | -111.97182 | 1442 ft | 135 kts | 270° |
| 2026-05-06 17:08 | 33.44073 | -111.98315 | 1287 ft | 138 kts | 270° |
| 2026-05-06 17:08 | 33.44080 | -111.99465 | 1145 ft | 137 kts | 270° |
| 2026-05-06 17:08 | 33.44081 | -112.00502 | 1132 ft | 97 kts | 270° |
| 2026-05-06 17:09 | 33.44078 | -112.00971 | 1131 ft | 32 kts | 260° |
| 2026-05-06 17:09 | 33.43989 | -112.01069 | 1130 ft | 11 kts | 130° |
| 2026-05-06 17:09 | 33.43975 | -112.00975 | 1131 ft | 11 kts | 88° |
| 2026-05-06 17:09 | 33.43975 | -112.00893 | 1131 ft | 11 kts | 91° |
| 2026-05-06 17:10 | 33.43974 | -112.00804 | 1132 ft | 12 kts | 91° |
| 2026-05-06 17:10 | 33.43977 | -112.00698 | 1131 ft | 13 kts | 87° |
| 2026-05-06 17:10 | 33.43978 | -112.00588 | 1132 ft | 13 kts | 90° |
| 2026-05-06 17:10 | 33.43977 | -112.00472 | 1132 ft | 14 kts | 91° |
| 2026-05-06 17:11 | 33.43945 | -112.00385 | 1132 ft | 11 kts | 160° |
| 2026-05-06 17:11 | 33.43897 | -112.00321 | 1132 ft | 7 kts | 123° |
| 2026-05-06 17:11 | 33.43843 | -112.00303 | 1132 ft | 9 kts | 180° |
| 2026-05-06 17:11 | 33.43802 | -112.00258 | 1132 ft | 9 kts | 109° |
| 2026-05-06 17:12 | 33.43796 | -112.00239 | 1132 ft | 0 kts | 109° |